sensor_id;sensor_type;location;lat;lon;timestamp;temperature;humidity
19805;DHT22;10062;51.052;13.756;2023-11-19T00:00:39;5.40;1.00
19805;DHT22;10062;51.052;13.756;2023-11-19T00:03:11;5.30;1.00
19805;DHT22;10062;51.052;13.756;2023-11-19T00:05:43;5.30;1.00
19805;DHT22;10062;51.052;13.756;2023-11-19T00:08:15;5.30;1.00
19805;DHT22;10062;51.052;13.756;2023-11-19T00:10:47;5.40;1.00
19805;DHT22;10062;51.052;13.756;2023-11-19T00:13:20;5.30;1.00
19805;DHT22;10062;51.052;13.756;2023-11-19T00:15:52;5.20;1.00
19805;DHT22;10062;51.052;13.756;2023-11-19T00:18:24;5.20;1.00
19805;DHT22;10062;51.052;13.756;2023-11-19T00:20:56;5.20;1.00
19805;DHT22;10062;51.052;13.756;2023-11-19T00:23:27;5.20;1.00
19805;DHT22;10062;51.052;13.756;2023-11-19T00:25:59;5.10;1.00
19805;DHT22;10062;51.052;13.756;2023-11-19T00:28:32;5.10;1.00
19805;DHT22;10062;51.052;13.756;2023-11-19T00:31:05;5.10;1.00
19805;DHT22;10062;51.052;13.756;2023-11-19T00:33:37;5.10;1.00
19805;DHT22;10062;51.052;13.756;2023-11-19T00:36:10;5.10;1.00
19805;DHT22;10062;51.052;13.756;2023-11-19T00:38:42;5.00;1.00
19805;DHT22;10062;51.052;13.756;2023-11-19T00:41:15;5.00;1.00
19805;DHT22;10062;51.052;13.756;2023-11-19T00:43:48;5.10;1.00
19805;DHT22;10062;51.052;13.756;2023-11-19T00:46:20;5.10;1.00
19805;DHT22;10062;51.052;13.756;2023-11-19T00:48:52;5.00;1.00
19805;DHT22;10062;51.052;13.756;2023-11-19T00:51:23;5.00;1.00
19805;DHT22;10062;51.052;13.756;2023-11-19T00:53:55;5.00;1.00
19805;DHT22;10062;51.052;13.756;2023-11-19T00:56:28;5.00;1.00
19805;DHT22;10062;51.052;13.756;2023-11-19T00:59:01;5.00;1.00
19805;DHT22;10062;51.052;13.756;2023-11-19T01:01:33;5.00;1.00
19805;DHT22;10062;51.052;13.756;2023-11-19T01:04:05;5.00;1.00
19805;DHT22;10062;51.052;13.756;2023-11-19T01:06:37;5.00;1.00
19805;DHT22;10062;51.052;13.756;2023-11-19T01:09:09;7.80;1.00
19805;DHT22;10062;51.052;13.756;2023-11-19T01:11:41;5.10;1.00
19805;DHT22;10062;51.052;13.756;2023-11-19T01:14:14;5.10;1.00
19805;DHT22;10062;51.052;13.756;2023-11-19T01:16:46;5.00;1.00
19805;DHT22;10062;51.052;13.756;2023-11-19T01:19:18;4.80;1.00
19805;DHT22;10062;51.052;13.756;2023-11-19T01:21:50;4.90;1.00
19805;DHT22;10062;51.052;13.756;2023-11-19T01:24:22;4.70;1.00
19805;DHT22;10062;51.052;13.756;2023-11-19T01:26:53;4.70;1.00
19805;DHT22;10062;51.052;13.756;2023-11-19T01:29:27;4.70;1.00
19805;DHT22;10062;51.052;13.756;2023-11-19T01:31:58;4.80;1.00
19805;DHT22;10062;51.052;13.756;2023-11-19T01:34:30;4.80;1.00
19805;DHT22;10062;51.052;13.756;2023-11-19T01:37:02;4.80;1.00
19805;DHT22;10062;51.052;13.756;2023-11-19T01:39:34;4.80;1.00
19805;DHT22;10062;51.052;13.756;2023-11-19T01:42:05;4.90;1.00
19805;DHT22;10062;51.052;13.756;2023-11-19T01:44:39;5.10;1.00
19805;DHT22;10062;51.052;13.756;2023-11-19T01:47:10;5.00;1.00
19805;DHT22;10062;51.052;13.756;2023-11-19T01:49:42;5.00;1.00
19805;DHT22;10062;51.052;13.756;2023-11-19T01:52:14;4.80;1.00
19805;DHT22;10062;51.052;13.756;2023-11-19T01:54:46;4.80;1.00
19805;DHT22;10062;51.052;13.756;2023-11-19T01:57:19;5.20;1.00
19805;DHT22;10062;51.052;13.756;2023-11-19T01:59:54;5.00;1.00
19805;DHT22;10062;51.052;13.756;2023-11-19T02:02:26;5.30;1.00
19805;DHT22;10062;51.052;13.756;2023-11-19T02:04:57;5.10;1.00
19805;DHT22;10062;51.052;13.756;2023-11-19T02:07:30;5.10;1.00
19805;DHT22;10062;51.052;13.756;2023-11-19T02:10:03;5.10;1.00
19805;DHT22;10062;51.052;13.756;2023-11-19T02:12:36;5.20;1.00
19805;DHT22;10062;51.052;13.756;2023-11-19T02:15:09;5.20;1.00
19805;DHT22;10062;51.052;13.756;2023-11-19T02:17:41;5.30;1.00
19805;DHT22;10062;51.052;13.756;2023-11-19T02:20:14;5.20;1.00
19805;DHT22;10062;51.052;13.756;2023-11-19T02:22:45;5.20;1.00
19805;DHT22;10062;51.052;13.756;2023-11-19T02:25:25;5.30;1.00
19805;DHT22;10062;51.052;13.756;2023-11-19T02:28:02;5.40;1.00
19805;DHT22;10062;51.052;13.756;2023-11-19T02:30:35;5.30;1.00
19805;DHT22;10062;51.052;13.756;2023-11-19T02:33:07;5.30;1.00
19805;DHT22;10062;51.052;13.756;2023-11-19T02:35:39;5.30;1.00
19805;DHT22;10062;51.052;13.756;2023-11-19T02:38:11;5.40;1.00
19805;DHT22;10062;51.052;13.756;2023-11-19T02:40:44;5.40;1.00
19805;DHT22;10062;51.052;13.756;2023-11-19T02:43:17;5.40;1.00
19805;DHT22;10062;51.052;13.756;2023-11-19T02:45:50;5.50;1.00
19805;DHT22;10062;51.052;13.756;2023-11-19T02:48:21;5.50;1.00
19805;DHT22;10062;51.052;13.756;2023-11-19T02:50:53;5.50;1.00
19805;DHT22;10062;51.052;13.756;2023-11-19T02:53:25;5.40;1.00
19805;DHT22;10062;51.052;13.756;2023-11-19T02:55:59;5.40;1.00
19805;DHT22;10062;51.052;13.756;2023-11-19T02:58:42;5.50;1.00
19805;DHT22;10062;51.052;13.756;2023-11-19T03:01:21;5.50;1.00
19805;DHT22;10062;51.052;13.756;2023-11-19T03:04:00;5.50;1.00
19805;DHT22;10062;51.052;13.756;2023-11-19T03:06:32;5.60;1.00
19805;DHT22;10062;51.052;13.756;2023-11-19T03:09:04;5.60;1.00
19805;DHT22;10062;51.052;13.756;2023-11-19T03:11:37;5.60;1.00
19805;DHT22;10062;51.052;13.756;2023-11-19T03:14:10;5.60;1.00
19805;DHT22;10062;51.052;13.756;2023-11-19T03:16:45;5.50;1.00
19805;DHT22;10062;51.052;13.756;2023-11-19T03:19:16;5.60;1.00
19805;DHT22;10062;51.052;13.756;2023-11-19T03:21:48;5.60;1.00
19805;DHT22;10062;51.052;13.756;2023-11-19T03:24:20;5.70;1.00
19805;DHT22;10062;51.052;13.756;2023-11-19T03:26:52;5.70;1.00
19805;DHT22;10062;51.052;13.756;2023-11-19T03:29:25;5.70;1.00
19805;DHT22;10062;51.052;13.756;2023-11-19T03:31:59;5.80;1.00
19805;DHT22;10062;51.052;13.756;2023-11-19T03:34:30;5.80;1.00
19805;DHT22;10062;51.052;13.756;2023-11-19T03:37:02;5.80;1.00
19805;DHT22;10062;51.052;13.756;2023-11-19T03:39:34;5.70;1.00
19805;DHT22;10062;51.052;13.756;2023-11-19T03:42:06;5.60;1.00
19805;DHT22;10062;51.052;13.756;2023-11-19T03:44:39;5.60;1.00
19805;DHT22;10062;51.052;13.756;2023-11-19T03:47:11;5.60;1.00
19805;DHT22;10062;51.052;13.756;2023-11-19T03:49:44;5.60;1.00
19805;DHT22;10062;51.052;13.756;2023-11-19T03:52:19;5.70;1.00
19805;DHT22;10062;51.052;13.756;2023-11-19T03:54:51;5.80;1.00
19805;DHT22;10062;51.052;13.756;2023-11-19T03:57:22;5.70;1.00
19805;DHT22;10062;51.052;13.756;2023-11-19T03:59:56;5.80;1.00
19805;DHT22;10062;51.052;13.756;2023-11-19T04:02:29;5.80;1.00
19805;DHT22;10062;51.052;13.756;2023-11-19T04:05:01;5.90;1.00
19805;DHT22;10062;51.052;13.756;2023-11-19T04:07:33;5.80;1.00
19805;DHT22;10062;51.052;13.756;2023-11-19T04:10:06;5.80;1.00
19805;DHT22;10062;51.052;13.756;2023-11-19T04:12:38;5.80;1.00
19805;DHT22;10062;51.052;13.756;2023-11-19T04:15:12;5.70;1.00
19805;DHT22;10062;51.052;13.756;2023-11-19T04:17:44;5.80;1.00
19805;DHT22;10062;51.052;13.756;2023-11-19T04:20:16;5.80;1.00
19805;DHT22;10062;51.052;13.756;2023-11-19T04:22:50;5.80;1.00
19805;DHT22;10062;51.052;13.756;2023-11-19T04:25:21;5.80;1.00
19805;DHT22;10062;51.052;13.756;2023-11-19T04:27:55;8.40;1.00
19805;DHT22;10062;51.052;13.756;2023-11-19T04:30:28;5.80;1.00
19805;DHT22;10062;51.052;13.756;2023-11-19T04:33:02;5.70;1.00
19805;DHT22;10062;51.052;13.756;2023-11-19T04:35:34;5.70;1.00
19805;DHT22;10062;51.052;13.756;2023-11-19T04:38:05;5.80;1.00
19805;DHT22;10062;51.052;13.756;2023-11-19T04:40:38;5.80;1.00
19805;DHT22;10062;51.052;13.756;2023-11-19T04:43:09;5.80;1.00
19805;DHT22;10062;51.052;13.756;2023-11-19T04:45:42;5.80;1.00
19805;DHT22;10062;51.052;13.756;2023-11-19T04:48:14;5.70;1.00
19805;DHT22;10062;51.052;13.756;2023-11-19T04:50:46;5.70;1.00
19805;DHT22;10062;51.052;13.756;2023-11-19T04:53:18;5.70;1.00
19805;DHT22;10062;51.052;13.756;2023-11-19T04:55:51;5.60;1.00
19805;DHT22;10062;51.052;13.756;2023-11-19T04:58:22;5.70;1.00
19805;DHT22;10062;51.052;13.756;2023-11-19T05:00:55;5.70;1.00
19805;DHT22;10062;51.052;13.756;2023-11-19T05:03:27;5.70;1.00
19805;DHT22;10062;51.052;13.756;2023-11-19T05:05:59;5.70;1.00
19805;DHT22;10062;51.052;13.756;2023-11-19T05:08:31;5.60;1.00
19805;DHT22;10062;51.052;13.756;2023-11-19T05:11:03;5.60;1.00
19805;DHT22;10062;51.052;13.756;2023-11-19T05:13:36;5.30;1.00
19805;DHT22;10062;51.052;13.756;2023-11-19T05:16:09;5.20;28.70
19805;DHT22;10062;51.052;13.756;2023-11-19T05:18:41;5.40;43.00
19805;DHT22;10062;51.052;13.756;2023-11-19T05:21:13;5.40;31.10
19805;DHT22;10062;51.052;13.756;2023-11-19T05:23:45;5.30;36.00
19805;DHT22;10062;51.052;13.756;2023-11-19T05:26:18;5.40;45.40
19805;DHT22;10062;51.052;13.756;2023-11-19T05:28:51;5.30;49.80
19805;DHT22;10062;51.052;13.756;2023-11-19T05:31:24;5.30;55.90
19805;DHT22;10062;51.052;13.756;2023-11-19T05:33:55;5.30;74.10
19805;DHT22;10062;51.052;13.756;2023-11-19T05:36:27;5.30;75.60
19805;DHT22;10062;51.052;13.756;2023-11-19T05:38:59;5.30;71.50
19805;DHT22;10062;51.052;13.756;2023-11-19T05:41:31;5.30;74.20
19805;DHT22;10062;51.052;13.756;2023-11-19T05:44:03;5.30;68.50
19805;DHT22;10062;51.052;13.756;2023-11-19T05:46:36;5.30;63.60
19805;DHT22;10062;51.052;13.756;2023-11-19T05:49:11;5.30;65.70
19805;DHT22;10062;51.052;13.756;2023-11-19T05:51:43;5.30;76.00
19805;DHT22;10062;51.052;13.756;2023-11-19T05:54:16;5.20;72.60
19805;DHT22;10062;51.052;13.756;2023-11-19T05:56:49;5.30;87.10
19805;DHT22;10062;51.052;13.756;2023-11-19T05:59:24;5.30;85.30
19805;DHT22;10062;51.052;13.756;2023-11-19T06:01:58;5.30;72.00
19805;DHT22;10062;51.052;13.756;2023-11-19T06:04:30;5.40;72.80
19805;DHT22;10062;51.052;13.756;2023-11-19T06:07:02;5.30;62.60
19805;DHT22;10062;51.052;13.756;2023-11-19T06:09:34;5.20;73.20
19805;DHT22;10062;51.052;13.756;2023-11-19T06:12:06;5.10;78.10
19805;DHT22;10062;51.052;13.756;2023-11-19T06:14:38;5.00;95.50
19805;DHT22;10062;51.052;13.756;2023-11-19T06:17:11;5.10;99.90
19805;DHT22;10062;51.052;13.756;2023-11-19T06:19:43;5.10;99.30
19805;DHT22;10062;51.052;13.756;2023-11-19T06:22:15;5.20;95.30
19805;DHT22;10062;51.052;13.756;2023-11-19T06:24:47;5.20;91.40
19805;DHT22;10062;51.052;13.756;2023-11-19T06:27:19;5.00;94.60
19805;DHT22;10062;51.052;13.756;2023-11-19T06:29:50;5.10;99.50
19805;DHT22;10062;51.052;13.756;2023-11-19T06:32:24;5.00;99.90
19805;DHT22;10062;51.052;13.756;2023-11-19T06:34:56;5.00;99.90
19805;DHT22;10062;51.052;13.756;2023-11-19T06:37:28;5.00;99.90
19805;DHT22;10062;51.052;13.756;2023-11-19T06:40:00;5.10;99.90
19805;DHT22;10062;51.052;13.756;2023-11-19T06:42:31;5.10;99.90
19805;DHT22;10062;51.052;13.756;2023-11-19T06:45:04;5.20;99.90
19805;DHT22;10062;51.052;13.756;2023-11-19T06:47:38;5.20;99.90
19805;DHT22;10062;51.052;13.756;2023-11-19T06:50:09;5.30;99.90
19805;DHT22;10062;51.052;13.756;2023-11-19T06:52:42;5.30;99.90
19805;DHT22;10062;51.052;13.756;2023-11-19T06:55:16;5.30;99.90
19805;DHT22;10062;51.052;13.756;2023-11-19T06:57:47;5.30;99.90
19805;DHT22;10062;51.052;13.756;2023-11-19T07:00:19;5.40;99.90
19805;DHT22;10062;51.052;13.756;2023-11-19T07:02:53;5.30;99.90
19805;DHT22;10062;51.052;13.756;2023-11-19T07:05:24;5.30;99.90
19805;DHT22;10062;51.052;13.756;2023-11-19T07:07:56;5.20;99.90
19805;DHT22;10062;51.052;13.756;2023-11-19T07:10:28;5.30;99.90
19805;DHT22;10062;51.052;13.756;2023-11-19T07:13:00;5.30;99.90
19805;DHT22;10062;51.052;13.756;2023-11-19T07:15:36;5.20;99.90
19805;DHT22;10062;51.052;13.756;2023-11-19T07:18:10;5.20;99.90
19805;DHT22;10062;51.052;13.756;2023-11-19T07:20:42;5.40;99.90
19805;DHT22;10062;51.052;13.756;2023-11-19T07:23:14;5.50;99.90
19805;DHT22;10062;51.052;13.756;2023-11-19T07:25:47;5.40;99.90
19805;DHT22;10062;51.052;13.756;2023-11-19T07:28:20;5.40;99.90
19805;DHT22;10062;51.052;13.756;2023-11-19T07:30:52;5.40;99.90
19805;DHT22;10062;51.052;13.756;2023-11-19T07:33:27;5.40;99.90
19805;DHT22;10062;51.052;13.756;2023-11-19T07:35:59;5.50;99.90
19805;DHT22;10062;51.052;13.756;2023-11-19T07:38:31;5.40;99.90
19805;DHT22;10062;51.052;13.756;2023-11-19T07:41:04;5.40;99.90
19805;DHT22;10062;51.052;13.756;2023-11-19T07:43:36;5.50;99.90
19805;DHT22;10062;51.052;13.756;2023-11-19T07:46:10;5.50;99.90
19805;DHT22;10062;51.052;13.756;2023-11-19T07:48:44;5.60;99.90
19805;DHT22;10062;51.052;13.756;2023-11-19T07:51:17;5.50;99.90
19805;DHT22;10062;51.052;13.756;2023-11-19T07:53:49;5.60;99.90
19805;DHT22;10062;51.052;13.756;2023-11-19T07:56:21;5.70;99.90
19805;DHT22;10062;51.052;13.756;2023-11-19T07:58:52;5.60;99.90
19805;DHT22;10062;51.052;13.756;2023-11-19T08:01:24;5.60;99.90
19805;DHT22;10062;51.052;13.756;2023-11-19T08:03:57;5.70;99.90
19805;DHT22;10062;51.052;13.756;2023-11-19T08:06:29;5.70;99.90
19805;DHT22;10062;51.052;13.756;2023-11-19T08:09:01;5.70;99.90
19805;DHT22;10062;51.052;13.756;2023-11-19T08:11:33;5.90;99.90
19805;DHT22;10062;51.052;13.756;2023-11-19T08:14:05;5.90;99.90
19805;DHT22;10062;51.052;13.756;2023-11-19T08:16:38;5.80;99.90
19805;DHT22;10062;51.052;13.756;2023-11-19T08:19:12;5.80;99.90
19805;DHT22;10062;51.052;13.756;2023-11-19T08:24:15;6.00;99.90
19805;DHT22;10062;51.052;13.756;2023-11-19T08:26:47;6.20;99.90
19805;DHT22;10062;51.052;13.756;2023-11-19T08:29:19;6.30;99.90
19805;DHT22;10062;51.052;13.756;2023-11-19T08:31:52;6.50;99.90
19805;DHT22;10062;51.052;13.756;2023-11-19T08:34:25;6.70;99.90
19805;DHT22;10062;51.052;13.756;2023-11-19T08:36:56;6.70;99.90
19805;DHT22;10062;51.052;13.756;2023-11-19T08:39:28;6.80;99.90
19805;DHT22;10062;51.052;13.756;2023-11-19T08:42:01;6.90;99.90
19805;DHT22;10062;51.052;13.756;2023-11-19T08:44:32;7.20;99.90
19805;DHT22;10062;51.052;13.756;2023-11-19T08:47:04;7.20;99.90
19805;DHT22;10062;51.052;13.756;2023-11-19T08:49:37;7.30;99.90
19805;DHT22;10062;51.052;13.756;2023-11-19T08:52:09;7.40;99.90
19805;DHT22;10062;51.052;13.756;2023-11-19T08:54:42;7.40;99.90
19805;DHT22;10062;51.052;13.756;2023-11-19T08:57:14;7.50;99.90
19805;DHT22;10062;51.052;13.756;2023-11-19T08:59:46;7.60;96.30
19805;DHT22;10062;51.052;13.756;2023-11-19T09:02:17;7.60;90.00
19805;DHT22;10062;51.052;13.756;2023-11-19T09:04:51;7.70;93.10
19805;DHT22;10062;51.052;13.756;2023-11-19T09:07:23;7.60;90.30
19805;DHT22;10062;51.052;13.756;2023-11-19T09:09:54;7.50;95.30
19805;DHT22;10062;51.052;13.756;2023-11-19T09:12:26;7.50;99.90
19805;DHT22;10062;51.052;13.756;2023-11-19T09:14:58;7.50;99.90
19805;DHT22;10062;51.052;13.756;2023-11-19T09:17:30;7.40;99.90
19805;DHT22;10062;51.052;13.756;2023-11-19T09:20:03;7.40;99.90
19805;DHT22;10062;51.052;13.756;2023-11-19T09:22:35;7.40;99.90
19805;DHT22;10062;51.052;13.756;2023-11-19T09:25:07;7.40;99.90
19805;DHT22;10062;51.052;13.756;2023-11-19T09:27:39;7.40;99.90
19805;DHT22;10062;51.052;13.756;2023-11-19T09:30:12;7.40;99.90
19805;DHT22;10062;51.052;13.756;2023-11-19T09:32:44;7.40;99.90
19805;DHT22;10062;51.052;13.756;2023-11-19T09:35:17;7.40;99.90
19805;DHT22;10062;51.052;13.756;2023-11-19T09:37:48;7.50;99.90
19805;DHT22;10062;51.052;13.756;2023-11-19T09:40:20;7.70;99.90
19805;DHT22;10062;51.052;13.756;2023-11-19T09:42:52;8.00;99.90
19805;DHT22;10062;51.052;13.756;2023-11-19T09:45:27;8.10;99.90
19805;DHT22;10062;51.052;13.756;2023-11-19T09:48:00;8.30;99.90
19805;DHT22;10062;51.052;13.756;2023-11-19T09:50:34;8.40;99.90
19805;DHT22;10062;51.052;13.756;2023-11-19T09:53:05;8.70;99.90
19805;DHT22;10062;51.052;13.756;2023-11-19T09:55:37;8.90;99.90
19805;DHT22;10062;51.052;13.756;2023-11-19T09:58:10;9.10;99.90
19805;DHT22;10062;51.052;13.756;2023-11-19T10:00:43;9.30;99.90
19805;DHT22;10062;51.052;13.756;2023-11-19T10:03:15;11.90;99.90
19805;DHT22;10062;51.052;13.756;2023-11-19T10:05:48;9.60;99.90
19805;DHT22;10062;51.052;13.756;2023-11-19T10:08:20;9.80;99.90
19805;DHT22;10062;51.052;13.756;2023-11-19T10:10:52;10.10;99.90
19805;DHT22;10062;51.052;13.756;2023-11-19T10:13:26;10.40;99.90
19805;DHT22;10062;51.052;13.756;2023-11-19T10:15:58;10.70;60.40
19805;DHT22;10062;51.052;13.756;2023-11-19T10:18:30;10.80;19.70
19805;DHT22;10062;51.052;13.756;2023-11-19T10:21:03;11.10;19.20
19805;DHT22;10062;51.052;13.756;2023-11-19T10:23:48;11.30;1.00
19805;DHT22;10062;51.052;13.756;2023-11-19T10:26:20;11.40;1.00
19805;DHT22;10062;51.052;13.756;2023-11-19T10:28:52;11.40;1.00
19805;DHT22;10062;51.052;13.756;2023-11-19T10:31:24;11.40;1.00
19805;DHT22;10062;51.052;13.756;2023-11-19T10:33:56;11.50;1.00
19805;DHT22;10062;51.052;13.756;2023-11-19T10:36:38;11.50;1.00
19805;DHT22;10062;51.052;13.756;2023-11-19T10:39:12;11.50;1.00
19805;DHT22;10062;51.052;13.756;2023-11-19T10:41:44;11.50;1.00
19805;DHT22;10062;51.052;13.756;2023-11-19T10:44:31;11.50;1.00
19805;DHT22;10062;51.052;13.756;2023-11-19T10:47:08;11.60;1.00
19805;DHT22;10062;51.052;13.756;2023-11-19T10:49:40;11.60;1.00
19805;DHT22;10062;51.052;13.756;2023-11-19T10:52:17;11.60;1.00
19805;DHT22;10062;51.052;13.756;2023-11-19T10:54:51;11.80;1.00
19805;DHT22;10062;51.052;13.756;2023-11-19T10:57:27;11.90;1.00
19805;DHT22;10062;51.052;13.756;2023-11-19T11:00:03;11.90;1.00
19805;DHT22;10062;51.052;13.756;2023-11-19T11:02:41;11.90;1.00
19805;DHT22;10062;51.052;13.756;2023-11-19T11:05:17;12.00;1.00
19805;DHT22;10062;51.052;13.756;2023-11-19T11:07:52;12.00;1.00
19805;DHT22;10062;51.052;13.756;2023-11-19T11:10:26;12.00;1.00
19805;DHT22;10062;51.052;13.756;2023-11-19T11:12:59;12.10;1.00
19805;DHT22;10062;51.052;13.756;2023-11-19T11:15:34;12.10;1.00
19805;DHT22;10062;51.052;13.756;2023-11-19T11:18:08;12.10;1.00
19805;DHT22;10062;51.052;13.756;2023-11-19T11:20:41;12.10;1.00
19805;DHT22;10062;51.052;13.756;2023-11-19T11:26:29;12.10;1.00
19805;DHT22;10062;51.052;13.756;2023-11-19T11:29:09;12.10;1.00
19805;DHT22;10062;51.052;13.756;2023-11-19T11:31:51;12.10;1.00
19805;DHT22;10062;51.052;13.756;2023-11-19T11:34:39;12.10;1.00
19805;DHT22;10062;51.052;13.756;2023-11-19T11:37:18;12.10;1.00
19805;DHT22;10062;51.052;13.756;2023-11-19T11:39:57;12.00;1.00
19805;DHT22;10062;51.052;13.756;2023-11-19T11:42:33;12.10;1.00
19805;DHT22;10062;51.052;13.756;2023-11-19T11:45:06;12.00;1.00
19805;DHT22;10062;51.052;13.756;2023-11-19T11:48:11;12.00;1.00
19805;DHT22;10062;51.052;13.756;2023-11-19T11:50:52;12.00;1.00
19805;DHT22;10062;51.052;13.756;2023-11-19T11:53:25;12.00;1.00
19805;DHT22;10062;51.052;13.756;2023-11-19T11:55:59;12.10;1.00
19805;DHT22;10062;51.052;13.756;2023-11-19T11:58:32;12.40;1.00
19805;DHT22;10062;51.052;13.756;2023-11-19T12:01:05;12.70;1.00
19805;DHT22;10062;51.052;13.756;2023-11-19T12:03:37;13.00;1.00
19805;DHT22;10062;51.052;13.756;2023-11-19T12:06:11;13.20;1.00
19805;DHT22;10062;51.052;13.756;2023-11-19T12:08:42;13.80;1.00
19805;DHT22;10062;51.052;13.756;2023-11-19T12:11:16;14.10;1.00
19805;DHT22;10062;51.052;13.756;2023-11-19T12:13:56;14.70;99.90
19805;DHT22;10062;51.052;13.756;2023-11-19T12:16:30;14.50;5.30
19805;DHT22;10062;51.052;13.756;2023-11-19T12:19:07;17.20;1.00
19805;DHT22;10062;51.052;13.756;2023-11-19T12:21:39;14.40;1.00
19805;DHT22;10062;51.052;13.756;2023-11-19T12:24:11;14.30;1.00
19805;DHT22;10062;51.052;13.756;2023-11-19T12:26:44;14.20;1.00
19805;DHT22;10062;51.052;13.756;2023-11-19T12:29:18;14.00;1.00
19805;DHT22;10062;51.052;13.756;2023-11-19T12:31:54;14.00;99.90
19805;DHT22;10062;51.052;13.756;2023-11-19T12:34:26;14.20;99.90
19805;DHT22;10062;51.052;13.756;2023-11-19T12:36:57;14.40;1.00
19805;DHT22;10062;51.052;13.756;2023-11-19T12:39:31;14.60;99.90
19805;DHT22;10062;51.052;13.756;2023-11-19T12:42:04;14.70;99.90
19805;DHT22;10062;51.052;13.756;2023-11-19T12:44:36;14.80;1.00
19805;DHT22;10062;51.052;13.756;2023-11-19T12:47:08;14.90;1.00
19805;DHT22;10062;51.052;13.756;2023-11-19T12:49:41;14.80;1.00
19805;DHT22;10062;51.052;13.756;2023-11-19T12:52:13;14.80;1.00
19805;DHT22;10062;51.052;13.756;2023-11-19T12:54:45;14.80;99.90
19805;DHT22;10062;51.052;13.756;2023-11-19T12:57:18;14.80;99.90
19805;DHT22;10062;51.052;13.756;2023-11-19T12:59:56;14.80;99.90
19805;DHT22;10062;51.052;13.756;2023-11-19T13:02:46;14.90;99.90
19805;DHT22;10062;51.052;13.756;2023-11-19T13:05:26;15.00;1.00
19805;DHT22;10062;51.052;13.756;2023-11-19T13:07:59;15.00;1.00
19805;DHT22;10062;51.052;13.756;2023-11-19T13:10:32;14.90;99.90
19805;DHT22;10062;51.052;13.756;2023-11-19T13:13:06;14.80;99.90
19805;DHT22;10062;51.052;13.756;2023-11-19T13:15:38;14.80;99.90
19805;DHT22;10062;51.052;13.756;2023-11-19T13:18:10;14.50;99.90
19805;DHT22;10062;51.052;13.756;2023-11-19T13:20:42;14.40;1.00
19805;DHT22;10062;51.052;13.756;2023-11-19T13:23:14;14.40;1.00
19805;DHT22;10062;51.052;13.756;2023-11-19T13:25:46;14.40;1.00
19805;DHT22;10062;51.052;13.756;2023-11-19T13:28:19;14.60;99.90
19805;DHT22;10062;51.052;13.756;2023-11-19T13:30:51;14.80;1.00
19805;DHT22;10062;51.052;13.756;2023-11-19T13:33:24;14.80;99.90
19805;DHT22;10062;51.052;13.756;2023-11-19T13:35:56;14.70;1.00
19805;DHT22;10062;51.052;13.756;2023-11-19T13:38:28;14.90;1.00
19805;DHT22;10062;51.052;13.756;2023-11-19T13:41:00;14.80;1.00
19805;DHT22;10062;51.052;13.756;2023-11-19T13:43:33;14.80;1.00
19805;DHT22;10062;51.052;13.756;2023-11-19T13:46:05;14.70;99.90
19805;DHT22;10062;51.052;13.756;2023-11-19T13:48:39;14.60;99.90
19805;DHT22;10062;51.052;13.756;2023-11-19T13:51:11;14.50;69.30
19805;DHT22;10062;51.052;13.756;2023-11-19T13:53:43;14.40;99.90
19805;DHT22;10062;51.052;13.756;2023-11-19T13:56:15;14.30;99.90
19805;DHT22;10062;51.052;13.756;2023-11-19T13:58:49;14.30;1.00
19805;DHT22;10062;51.052;13.756;2023-11-19T14:01:21;14.30;99.90
19805;DHT22;10062;51.052;13.756;2023-11-19T14:03:53;14.30;1.00
19805;DHT22;10062;51.052;13.756;2023-11-19T14:06:24;14.20;1.00
19805;DHT22;10062;51.052;13.756;2023-11-19T14:08:56;14.30;99.90
19805;DHT22;10062;51.052;13.756;2023-11-19T14:11:28;14.20;9.20
19805;DHT22;10062;51.052;13.756;2023-11-19T14:14:01;14.20;1.00
19805;DHT22;10062;51.052;13.756;2023-11-19T14:16:32;14.10;93.00
19805;DHT22;10062;51.052;13.756;2023-11-19T14:19:04;14.10;99.90
19805;DHT22;10062;51.052;13.756;2023-11-19T14:21:36;14.00;99.90
19805;DHT22;10062;51.052;13.756;2023-11-19T14:24:08;13.90;46.70
19805;DHT22;10062;51.052;13.756;2023-11-19T14:26:40;13.80;1.00
19805;DHT22;10062;51.052;13.756;2023-11-19T14:29:13;13.80;1.00
19805;DHT22;10062;51.052;13.756;2023-11-19T14:31:45;13.80;1.00
19805;DHT22;10062;51.052;13.756;2023-11-19T14:34:16;13.70;99.90
19805;DHT22;10062;51.052;13.756;2023-11-19T14:36:49;13.70;1.00
19805;DHT22;10062;51.052;13.756;2023-11-19T14:39:21;13.50;99.90
19805;DHT22;10062;51.052;13.756;2023-11-19T14:41:53;13.40;1.00
19805;DHT22;10062;51.052;13.756;2023-11-19T14:44:29;13.30;1.00
19805;DHT22;10062;51.052;13.756;2023-11-19T14:47:01;13.30;1.00
19805;DHT22;10062;51.052;13.756;2023-11-19T14:49:34;13.20;99.90
19805;DHT22;10062;51.052;13.756;2023-11-19T14:52:07;13.20;99.90
19805;DHT22;10062;51.052;13.756;2023-11-19T14:54:39;13.10;1.00
19805;DHT22;10062;51.052;13.756;2023-11-19T14:57:11;13.10;99.90
19805;DHT22;10062;51.052;13.756;2023-11-19T14:59:45;13.00;99.90
19805;DHT22;10062;51.052;13.756;2023-11-19T15:02:17;13.10;99.90
19805;DHT22;10062;51.052;13.756;2023-11-19T15:04:49;13.00;1.00
19805;DHT22;10062;51.052;13.756;2023-11-19T15:07:21;12.90;1.00
19805;DHT22;10062;51.052;13.756;2023-11-19T15:09:53;12.90;18.70
19805;DHT22;10062;51.052;13.756;2023-11-19T15:12:25;12.90;1.00
19805;DHT22;10062;51.052;13.756;2023-11-19T15:14:58;12.80;99.90
19805;DHT22;10062;51.052;13.756;2023-11-19T15:17:30;12.70;99.90
19805;DHT22;10062;51.052;13.756;2023-11-19T15:20:03;12.60;99.90
19805;DHT22;10062;51.052;13.756;2023-11-19T15:22:35;12.50;1.00
19805;DHT22;10062;51.052;13.756;2023-11-19T15:25:07;12.40;1.00
19805;DHT22;10062;51.052;13.756;2023-11-19T15:27:40;12.40;1.00
19805;DHT22;10062;51.052;13.756;2023-11-19T15:30:14;12.30;99.90
19805;DHT22;10062;51.052;13.756;2023-11-19T15:32:46;12.30;99.90
19805;DHT22;10062;51.052;13.756;2023-11-19T15:35:18;12.30;99.90
19805;DHT22;10062;51.052;13.756;2023-11-19T15:37:50;12.20;1.00
19805;DHT22;10062;51.052;13.756;2023-11-19T15:40:21;12.10;99.90
19805;DHT22;10062;51.052;13.756;2023-11-19T15:42:53;12.20;1.00
19805;DHT22;10062;51.052;13.756;2023-11-19T15:45:29;12.10;99.90
19805;DHT22;10062;51.052;13.756;2023-11-19T15:48:01;12.00;1.00
19805;DHT22;10062;51.052;13.756;2023-11-19T15:50:32;11.90;1.00
19805;DHT22;10062;51.052;13.756;2023-11-19T15:53:04;11.90;1.00
19805;DHT22;10062;51.052;13.756;2023-11-19T15:55:36;11.90;1.00
19805;DHT22;10062;51.052;13.756;2023-11-19T15:58:08;11.90;1.00
19805;DHT22;10062;51.052;13.756;2023-11-19T16:00:41;11.90;99.90
19805;DHT22;10062;51.052;13.756;2023-11-19T16:03:16;11.90;1.00
19805;DHT22;10062;51.052;13.756;2023-11-19T16:05:48;11.80;1.00
19805;DHT22;10062;51.052;13.756;2023-11-19T16:08:20;11.80;1.00
19805;DHT22;10062;51.052;13.756;2023-11-19T16:10:53;11.70;1.00
19805;DHT22;10062;51.052;13.756;2023-11-19T16:13:24;11.70;1.00
19805;DHT22;10062;51.052;13.756;2023-11-19T16:15:58;11.70;15.10